sensor_id;sensor_type;location;lat;lon;timestamp;pressure;altitude;pressure_sealevel;temperature;humidity
32452;BME280;45528;52.102;5.242;2024-03-07T00:12:26;102220.0;;;10.74;59.71
32452;BME280;45528;52.102;5.242;2024-03-07T00:14:02;102223.0;;;10.69;59.79
32452;BME280;45528;52.102;5.242;2024-03-07T00:15:38;102223.0;;;10.66;59.89
32452;BME280;45528;52.102;5.242;2024-03-07T00:18:50;102225.0;;;10.5;59.87
32452;BME280;45528;52.102;5.242;2024-03-07T00:20:26;102219.0;;;10.77;59.39
32452;BME280;45528;52.102;5.242;2024-03-07T00:22:02;102221.0;;;10.48;60.15
32452;BME280;45528;52.102;5.242;2024-03-07T00:23:38;102223.0;;;10.83;59.38
32452;BME280;45528;52.102;5.242;2024-03-07T00:26:51;102226.0;;;10.73;59.68
32452;BME280;45528;52.102;5.242;2024-03-07T00:28:27;102228.0;;;10.77;59.54
32452;BME280;45528;52.102;5.242;2024-03-07T00:30:04;102225.0;;;10.72;59.25
32452;BME280;45528;52.102;5.242;2024-03-07T00:33:16;102222.0;;;10.81;59.06
32452;BME280;45528;52.102;5.242;2024-03-07T00:34:52;102225.0;;;10.69;59.29
32452;BME280;45528;52.102;5.242;2024-03-07T00:36:28;102221.0;;;10.69;59.15
32452;BME280;45528;52.102;5.242;2024-03-07T00:39:41;102222.0;;;10.82;59.01
32452;BME280;45528;52.102;5.242;2024-03-07T00:41:18;102223.0;;;10.72;59.01
32452;BME280;45528;52.102;5.242;2024-03-07T00:42:58;102225.0;;;10.73;59.03
32452;BME280;45528;52.102;5.242;2024-03-07T00:44:34;102225.0;;;10.63;59.05
32452;BME280;45528;52.102;5.242;2024-03-07T00:49:22;102222.0;;;10.36;59.53
32452;BME280;45528;52.102;5.242;2024-03-07T00:50:58;102228.0;;;10.36;59.11
32452;BME280;45528;52.102;5.242;2024-03-07T00:54:10;102225.0;;;10.13;59.4
32452;BME280;45528;52.102;5.242;2024-03-07T00:55:46;102222.0;;;10.32;59.12
32452;BME280;45528;52.102;5.242;2024-03-07T00:57:22;102225.0;;;10.32;58.81
32452;BME280;45528;52.102;5.242;2024-03-07T01:00:35;102224.0;;;10.0;59.06
32452;BME280;45528;52.102;5.242;2024-03-07T01:02:11;102222.0;;;10.26;58.62
32452;BME280;45528;52.102;5.242;2024-03-07T01:03:48;102220.0;;;10.15;58.67
32452;BME280;45528;52.102;5.242;2024-03-07T01:05:25;102216.0;;;10.0;58.79
32452;BME280;45528;52.102;5.242;2024-03-07T01:08:39;102214.0;;;10.17;58.74
32452;BME280;45528;52.102;5.242;2024-03-07T01:10:16;102214.0;;;10.03;59.09
32452;BME280;45528;52.102;5.242;2024-03-07T01:11:52;102214.0;;;10.21;58.69
32452;BME280;45528;52.102;5.242;2024-03-07T01:15:04;102216.0;;;10.14;58.62
32452;BME280;45528;52.102;5.242;2024-03-07T01:16:41;102212.0;;;10.0;59.06
32452;BME280;45528;52.102;5.242;2024-03-07T01:18:17;102205.0;;;9.4;60.33
32452;BME280;45528;52.102;5.242;2024-03-07T01:21:29;102210.0;;;9.88;59.76
32452;BME280;45528;52.102;5.242;2024-03-07T01:23:05;102210.0;;;9.89;59.54
32452;BME280;45528;52.102;5.242;2024-03-07T01:24:42;102213.0;;;9.76;59.35
32452;BME280;45528;52.102;5.242;2024-03-07T01:26:18;102211.0;;;9.72;59.4
32452;BME280;45528;52.102;5.242;2024-03-07T01:29:30;102211.0;;;9.89;59.24
32452;BME280;45528;52.102;5.242;2024-03-07T01:31:06;102210.0;;;9.64;59.58
32452;BME280;45528;52.102;5.242;2024-03-07T01:32:42;102208.0;;;9.49;60.35
32452;BME280;45528;52.102;5.242;2024-03-07T01:35:54;102205.0;;;9.28;60.55
32452;BME280;45528;52.102;5.242;2024-03-07T01:37:30;102207.0;;;9.72;59.52
32452;BME280;45528;52.102;5.242;2024-03-07T01:39:06;102205.0;;;9.64;59.49
32452;BME280;45528;52.102;5.242;2024-03-07T01:42:20;102202.0;;;9.71;59.33
32452;BME280;45528;52.102;5.242;2024-03-07T01:43:56;102205.0;;;9.65;59.31
32452;BME280;45528;52.102;5.242;2024-03-07T01:45:32;102200.0;;;9.48;59.76
32452;BME280;45528;52.102;5.242;2024-03-07T01:48:44;102198.0;;;9.6;59.02
32452;BME280;45528;52.102;5.242;2024-03-07T01:50:21;102198.0;;;9.61;59.41
32452;BME280;45528;52.102;5.242;2024-03-07T01:51:58;102196.0;;;9.65;58.99
32452;BME280;45528;52.102;5.242;2024-03-07T01:53:39;102194.0;;;9.58;59.25
32452;BME280;45528;52.102;5.242;2024-03-07T01:56:51;102194.0;;;9.48;59.69
32452;BME280;45528;52.102;5.242;2024-03-07T01:58:29;102193.0;;;9.51;59.55
32452;BME280;45528;52.102;5.242;2024-03-07T02:00:06;102192.0;;;9.35;59.94
32452;BME280;45528;52.102;5.242;2024-03-07T02:03:19;102193.0;;;9.61;59.48
32452;BME280;45528;52.102;5.242;2024-03-07T02:04:59;102191.0;;;9.59;59.49
32452;BME280;45528;52.102;5.242;2024-03-07T02:06:35;102195.0;;;9.57;59.57
32452;BME280;45528;52.102;5.242;2024-03-07T02:08:11;102192.0;;;9.56;59.59
32452;BME280;45528;52.102;5.242;2024-03-07T02:11:23;102184.0;;;9.36;59.97
32452;BME280;45528;52.102;5.242;2024-03-07T02:12:59;102182.0;;;9.38;60.41
32452;BME280;45528;52.102;5.242;2024-03-07T02:14:35;102181.0;;;9.56;59.89
32452;BME280;45528;52.102;5.242;2024-03-07T02:17:50;102180.0;;;9.55;60.02
32452;BME280;45528;52.102;5.242;2024-03-07T02:19:26;102183.0;;;9.71;59.75
32452;BME280;45528;52.102;5.242;2024-03-07T02:21:06;102184.0;;;9.64;60.21
32452;BME280;45528;52.102;5.242;2024-03-07T02:24:18;102175.0;;;9.67;60.67
32452;BME280;45528;52.102;5.242;2024-03-07T02:25:54;102176.0;;;9.74;60.66
32452;BME280;45528;52.102;5.242;2024-03-07T02:27:30;102182.0;;;9.9;60.61
32452;BME280;45528;52.102;5.242;2024-03-07T02:29:06;102183.0;;;10.0;60.49
32452;BME280;45528;52.102;5.242;2024-03-07T02:32:18;102183.0;;;10.07;60.25
32452;BME280;45528;52.102;5.242;2024-03-07T02:33:54;102187.0;;;10.11;60.59
32452;BME280;45528;52.102;5.242;2024-03-07T02:35:30;102187.0;;;10.13;60.5
32452;BME280;45528;52.102;5.242;2024-03-07T02:38:43;102183.0;;;9.96;61.72
32452;BME280;45528;52.102;5.242;2024-03-07T02:40:19;102182.0;;;10.24;61.0
32452;BME280;45528;52.102;5.242;2024-03-07T02:41:55;102181.0;;;10.18;61.45
32452;BME280;45528;52.102;5.242;2024-03-07T02:45:08;102178.0;;;10.45;60.73
32452;BME280;45528;52.102;5.242;2024-03-07T02:46:44;102181.0;;;10.35;61.02
32452;BME280;45528;52.102;5.242;2024-03-07T02:48:21;102184.0;;;10.33;61.09
32452;BME280;45528;52.102;5.242;2024-03-07T02:51:33;102181.0;;;10.23;61.2
32452;BME280;45528;52.102;5.242;2024-03-07T02:53:10;102178.0;;;10.49;60.88
32452;BME280;45528;52.102;5.242;2024-03-07T02:54:46;102172.0;;;10.51;60.53
32452;BME280;45528;52.102;5.242;2024-03-07T02:56:22;102170.0;;;10.4;60.59
32452;BME280;45528;52.102;5.242;2024-03-07T02:59:34;102165.0;;;10.38;60.45
32452;BME280;45528;52.102;5.242;2024-03-07T03:01:11;102164.0;;;10.36;60.63
32452;BME280;45528;52.102;5.242;2024-03-07T03:02:48;102161.0;;;10.44;60.27
32452;BME280;45528;52.102;5.242;2024-03-07T03:06:00;102163.0;;;10.14;60.62
32452;BME280;45528;52.102;5.242;2024-03-07T03:07:36;102155.0;;;10.31;60.23
32452;BME280;45528;52.102;5.242;2024-03-07T03:09:13;102158.0;;;10.33;60.21
32452;BME280;45528;52.102;5.242;2024-03-07T03:12:26;102152.0;;;10.27;60.06
32452;BME280;45528;52.102;5.242;2024-03-07T03:14:05;102150.0;;;10.32;60.17
32452;BME280;45528;52.102;5.242;2024-03-07T03:15:41;102146.0;;;10.16;60.68
32452;BME280;45528;52.102;5.242;2024-03-07T03:17:17;102147.0;;;10.24;60.33
32452;BME280;45528;52.102;5.242;2024-03-07T03:20:29;102145.0;;;10.05;60.91
32452;BME280;45528;52.102;5.242;2024-03-07T03:22:05;102148.0;;;10.14;60.32
32452;BME280;45528;52.102;5.242;2024-03-07T03:23:41;102146.0;;;9.9;61.02
32452;BME280;45528;52.102;5.242;2024-03-07T03:26:54;102149.0;;;10.14;60.8
32452;BME280;45528;52.102;5.242;2024-03-07T03:28:30;102149.0;;;10.09;60.98
32452;BME280;45528;52.102;5.242;2024-03-07T03:30:07;102146.0;;;10.06;60.85
32452;BME280;45528;52.102;5.242;2024-03-07T03:33:19;102148.0;;;10.03;60.8
32452;BME280;45528;52.102;5.242;2024-03-07T03:34:55;102145.0;;;10.05;60.69
32452;BME280;45528;52.102;5.242;2024-03-07T03:36:32;102138.0;;;10.14;60.93
32452;BME280;45528;52.102;5.242;2024-03-07T03:38:08;102141.0;;;10.06;60.54
32452;BME280;45528;52.102;5.242;2024-03-07T03:41:21;102131.0;;;10.21;60.46
32452;BME280;45528;52.102;5.242;2024-03-07T03:42:58;102140.0;;;10.15;60.55
32452;BME280;45528;52.102;5.242;2024-03-07T03:44:34;102130.0;;;10.13;60.41
32452;BME280;45528;52.102;5.242;2024-03-07T03:47:47;102125.0;;;10.16;60.15
32452;BME280;45528;52.102;5.242;2024-03-07T03:49:23;102125.0;;;10.13;60.53
32452;BME280;45528;52.102;5.242;2024-03-07T03:50:59;102127.0;;;10.1;60.58
32452;BME280;45528;52.102;5.242;2024-03-07T03:54:11;102133.0;;;10.07;60.78
32452;BME280;45528;52.102;5.242;2024-03-07T03:55:47;102126.0;;;10.05;60.9
32452;BME280;45528;52.102;5.242;2024-03-07T03:57:23;102123.0;;;10.06;60.58
32452;BME280;45528;52.102;5.242;2024-03-07T04:00:35;102127.0;;;10.01;60.59
32452;BME280;45528;52.102;5.242;2024-03-07T04:02:11;102124.0;;;9.99;60.54
32452;BME280;45528;52.102;5.242;2024-03-07T04:03:48;102124.0;;;9.82;60.98
32452;BME280;45528;52.102;5.242;2024-03-07T04:05:24;102122.0;;;9.86;60.66
32452;BME280;45528;52.102;5.242;2024-03-07T04:08:36;102124.0;;;9.86;60.71
32452;BME280;45528;52.102;5.242;2024-03-07T04:10:16;102121.0;;;9.76;60.88
32452;BME280;45528;52.102;5.242;2024-03-07T04:11:52;102123.0;;;9.64;61.1
32452;BME280;45528;52.102;5.242;2024-03-07T04:15:10;102119.0;;;9.67;61.62
32452;BME280;45528;52.102;5.242;2024-03-07T04:16:50;102127.0;;;9.48;62.32
32452;BME280;45528;52.102;5.242;2024-03-07T04:18:26;102123.0;;;9.78;61.86
32452;BME280;45528;52.102;5.242;2024-03-07T04:20:03;102122.0;;;9.63;61.68
32452;BME280;45528;52.102;5.242;2024-03-07T04:23:16;102131.0;;;9.55;61.45
32452;BME280;45528;52.102;5.242;2024-03-07T04:24:52;102126.0;;;9.82;61.44
32452;BME280;45528;52.102;5.242;2024-03-07T04:26:28;102123.0;;;9.74;61.91
32452;BME280;45528;52.102;5.242;2024-03-07T04:29:40;102120.0;;;9.72;61.93
32452;BME280;45528;52.102;5.242;2024-03-07T04:31:17;102122.0;;;9.73;62.25
32452;BME280;45528;52.102;5.242;2024-03-07T04:32:53;102125.0;;;9.89;61.9
32452;BME280;45528;52.102;5.242;2024-03-07T04:36:05;102124.0;;;9.68;62.36
32452;BME280;45528;52.102;5.242;2024-03-07T04:37:41;102128.0;;;9.59;62.59
32452;BME280;45528;52.102;5.242;2024-03-07T04:39:17;102124.0;;;9.77;61.79
32452;BME280;45528;52.102;5.242;2024-03-07T04:40:53;102124.0;;;9.6;62.78
32452;BME280;45528;52.102;5.242;2024-03-07T04:44:05;102124.0;;;9.68;62.3
32452;BME280;45528;52.102;5.242;2024-03-07T04:45:42;102127.0;;;9.64;62.51
32452;BME280;45528;52.102;5.242;2024-03-07T04:47:18;102126.0;;;9.82;62.09
32452;BME280;45528;52.102;5.242;2024-03-07T04:50:30;102121.0;;;9.73;62.17
32452;BME280;45528;52.102;5.242;2024-03-07T04:52:06;102120.0;;;9.8;62.18
32452;BME280;45528;52.102;5.242;2024-03-07T04:53:42;102121.0;;;9.81;62.2
32452;BME280;45528;52.102;5.242;2024-03-07T04:56:55;102122.0;;;9.86;61.58
32452;BME280;45528;52.102;5.242;2024-03-07T04:58:32;102126.0;;;9.76;61.73
32452;BME280;45528;52.102;5.242;2024-03-07T05:00:12;102126.0;;;9.82;61.59
32452;BME280;45528;52.102;5.242;2024-03-07T05:01:50;102124.0;;;9.77;61.39
32452;BME280;45528;52.102;5.242;2024-03-07T05:05:02;102126.0;;;9.83;61.17
32452;BME280;45528;52.102;5.242;2024-03-07T05:06:39;102121.0;;;9.66;61.5
32452;BME280;45528;52.102;5.242;2024-03-07T05:08:15;102119.0;;;9.88;61.13
32452;BME280;45528;52.102;5.242;2024-03-07T05:11:28;102123.0;;;9.93;60.95
32452;BME280;45528;52.102;5.242;2024-03-07T05:13:04;102118.0;;;9.93;60.89
32452;BME280;45528;52.102;5.242;2024-03-07T05:14:40;102121.0;;;9.92;60.56
32452;BME280;45528;52.102;5.242;2024-03-07T05:17:53;102120.0;;;9.81;60.78
32452;BME280;45528;52.102;5.242;2024-03-07T05:19:29;102120.0;;;9.83;60.69
32452;BME280;45528;52.102;5.242;2024-03-07T05:21:05;102118.0;;;9.64;60.82
32452;BME280;45528;52.102;5.242;2024-03-07T05:24:18;102122.0;;;9.49;61.45
32452;BME280;45528;52.102;5.242;2024-03-07T05:25:54;102118.0;;;9.81;60.87
32452;BME280;45528;52.102;5.242;2024-03-07T05:27:30;102120.0;;;9.8;60.5
32452;BME280;45528;52.102;5.242;2024-03-07T05:29:07;102126.0;;;9.73;60.46
32452;BME280;45528;52.102;5.242;2024-03-07T05:32:21;102130.0;;;9.51;60.7
32452;BME280;45528;52.102;5.242;2024-03-07T05:33:57;102124.0;;;9.69;61.05
32452;BME280;45528;52.102;5.242;2024-03-07T05:35:33;102130.0;;;9.46;61.52
32452;BME280;45528;52.102;5.242;2024-03-07T05:38:46;102126.0;;;9.73;60.63
32452;BME280;45528;52.102;5.242;2024-03-07T05:40:22;102128.0;;;9.73;60.56
32452;BME280;45528;52.102;5.242;2024-03-07T05:41:58;102127.0;;;9.66;60.66
32452;BME280;45528;52.102;5.242;2024-03-07T05:45:10;102128.0;;;9.6;60.66
32452;BME280;45528;52.102;5.242;2024-03-07T05:46:46;102124.0;;;9.59;60.52
32452;BME280;45528;52.102;5.242;2024-03-07T05:48:22;102122.0;;;9.52;60.5
32452;BME280;45528;52.102;5.242;2024-03-07T05:49:59;102124.0;;;9.47;60.57
32452;BME280;45528;52.102;5.242;2024-03-07T05:53:11;102122.0;;;9.63;60.49
32452;BME280;45528;52.102;5.242;2024-03-07T05:54:47;102113.0;;;9.31;61.5
32452;BME280;45528;52.102;5.242;2024-03-07T05:56:26;102116.0;;;9.51;60.33
32452;BME280;45528;52.102;5.242;2024-03-07T05:59:38;102113.0;;;9.41;60.37
32452;BME280;45528;52.102;5.242;2024-03-07T06:01:14;102114.0;;;9.44;60.68
32452;BME280;45528;52.102;5.242;2024-03-07T06:02:50;102116.0;;;9.41;60.6
32452;BME280;45528;52.102;5.242;2024-03-07T06:06:03;102117.0;;;9.34;60.94
32452;BME280;45528;52.102;5.242;2024-03-07T06:07:39;102116.0;;;9.27;60.81
32452;BME280;45528;52.102;5.242;2024-03-07T06:09:15;102117.0;;;9.23;61.15
32452;BME280;45528;52.102;5.242;2024-03-07T06:10:51;102116.0;;;9.33;60.71
32452;BME280;45528;52.102;5.242;2024-03-07T06:14:04;102118.0;;;9.31;60.84
32452;BME280;45528;52.102;5.242;2024-03-07T06:15:43;102122.0;;;9.44;60.55
32452;BME280;45528;52.102;5.242;2024-03-07T06:17:20;102121.0;;;9.21;61.37
32452;BME280;45528;52.102;5.242;2024-03-07T06:20:32;102125.0;;;9.39;60.87
32452;BME280;45528;52.102;5.242;2024-03-07T06:22:08;102122.0;;;9.38;60.9
32452;BME280;45528;52.102;5.242;2024-03-07T06:23:44;102132.0;;;9.47;60.62
32452;BME280;45528;52.102;5.242;2024-03-07T06:26:56;102132.0;;;9.16;61.25
32452;BME280;45528;52.102;5.242;2024-03-07T06:28:32;102130.0;;;9.39;61.0
32452;BME280;45528;52.102;5.242;2024-03-07T06:30:09;102133.0;;;9.31;60.88
32452;BME280;45528;52.102;5.242;2024-03-07T06:33:22;102134.0;;;9.38;60.38
32452;BME280;45528;52.102;5.242;2024-03-07T06:34:58;102132.0;;;9.07;61.37
32452;BME280;45528;52.102;5.242;2024-03-07T06:36:34;102132.0;;;9.25;60.99
32452;BME280;45528;52.102;5.242;2024-03-07T06:38:11;102131.0;;;9.15;61.35
32452;BME280;45528;52.102;5.242;2024-03-07T06:43:00;102130.0;;;9.14;61.2
32452;BME280;45528;52.102;5.242;2024-03-07T06:44:37;102130.0;;;9.39;60.91
32452;BME280;45528;52.102;5.242;2024-03-07T06:47:49;102136.0;;;9.51;60.82
32452;BME280;45528;52.102;5.242;2024-03-07T06:49:25;102133.0;;;9.48;60.71
32452;BME280;45528;52.102;5.242;2024-03-07T06:51:01;102136.0;;;9.59;60.67
32452;BME280;45528;52.102;5.242;2024-03-07T06:54:13;102133.0;;;9.39;61.17
32452;BME280;45528;52.102;5.242;2024-03-07T06:55:49;102135.0;;;9.53;60.88
32452;BME280;45528;52.102;5.242;2024-03-07T06:57:26;102131.0;;;9.55;60.94
32452;BME280;45528;52.102;5.242;2024-03-07T06:59:02;102131.0;;;9.48;60.99
32452;BME280;45528;52.102;5.242;2024-03-07T07:02:14;102131.0;;;9.65;60.89
32452;BME280;45528;52.102;5.242;2024-03-07T07:03:50;102130.0;;;9.64;60.57
32452;BME280;45528;52.102;5.242;2024-03-07T07:05:26;102130.0;;;9.64;61.08
32452;BME280;45528;52.102;5.242;2024-03-07T07:08:39;102124.0;;;9.6;60.51
32452;BME280;45528;52.102;5.242;2024-03-07T07:10:15;102125.0;;;9.72;60.86
32452;BME280;45528;52.102;5.242;2024-03-07T07:11:51;102128.0;;;9.51;61.17
32452;BME280;45528;52.102;5.242;2024-03-07T07:15:04;102124.0;;;9.81;60.7
32452;BME280;45528;52.102;5.242;2024-03-07T07:18:16;102118.0;;;9.65;61.04
32452;BME280;45528;52.102;5.242;2024-03-07T07:21:28;102122.0;;;9.92;60.67
32452;BME280;45528;52.102;5.242;2024-03-07T07:23:04;102122.0;;;9.85;60.56
32452;BME280;45528;52.102;5.242;2024-03-07T07:24:41;102117.0;;;10.06;60.54
32452;BME280;45528;52.102;5.242;2024-03-07T07:26:17;102117.0;;;10.09;60.39
32452;BME280;45528;52.102;5.242;2024-03-07T07:29:29;102116.0;;;10.13;60.52
32452;BME280;45528;52.102;5.242;2024-03-07T07:31:05;102116.0;;;10.03;60.78
32452;BME280;45528;52.102;5.242;2024-03-07T07:32:42;102112.0;;;9.83;60.55
32452;BME280;45528;52.102;5.242;2024-03-07T07:35:54;102112.0;;;10.06;60.97
32452;BME280;45528;52.102;5.242;2024-03-07T07:37:31;102111.0;;;10.31;60.33
32452;BME280;45528;52.102;5.242;2024-03-07T07:39:07;102113.0;;;10.39;60.11
32452;BME280;45528;52.102;5.242;2024-03-07T07:42:19;102111.0;;;10.16;60.79
32452;BME280;45528;52.102;5.242;2024-03-07T07:43:55;102111.0;;;10.22;60.95
32452;BME280;45528;52.102;5.242;2024-03-07T07:45:31;102114.0;;;10.44;60.45
32452;BME280;45528;52.102;5.242;2024-03-07T07:47:07;102109.0;;;10.39;60.18
32452;BME280;45528;52.102;5.242;2024-03-07T07:50:21;102109.0;;;10.42;60.09
32452;BME280;45528;52.102;5.242;2024-03-07T07:51:58;102105.0;;;10.8;59.77
32452;BME280;45528;52.102;5.242;2024-03-07T07:53:34;102105.0;;;10.77;59.67
32452;BME280;45528;52.102;5.242;2024-03-07T07:56:47;102106.0;;;10.91;59.17
32452;BME280;45528;52.102;5.242;2024-03-07T07:58:23;102106.0;;;10.79;59.02
32452;BME280;45528;52.102;5.242;2024-03-07T07:59:59;102106.0;;;11.24;58.27
32452;BME280;45528;52.102;5.242;2024-03-07T08:03:12;102109.0;;;11.04;58.5
32452;BME280;45528;52.102;5.242;2024-03-07T08:04:48;102105.0;;;11.35;57.88
32452;BME280;45528;52.102;5.242;2024-03-07T08:06:24;102107.0;;;11.35;57.74
32452;BME280;45528;52.102;5.242;2024-03-07T08:09:38;102102.0;;;11.6;57.26
32452;BME280;45528;52.102;5.242;2024-03-07T08:11:14;102099.0;;;11.47;57.65
32452;BME280;45528;52.102;5.242;2024-03-07T08:12:50;102101.0;;;11.77;56.89
32452;BME280;45528;52.102;5.242;2024-03-07T08:14:26;102093.0;;;11.68;57.04
32452;BME280;45528;52.102;5.242;2024-03-07T08:17:41;102097.0;;;11.85;56.17
32452;BME280;45528;52.102;5.242;2024-03-07T08:19:18;102097.0;;;11.88;55.74
32452;BME280;45528;52.102;5.242;2024-03-07T08:20:54;102102.0;;;11.7;55.73
32452;BME280;45528;52.102;5.242;2024-03-07T08:24:06;102107.0;;;11.85;55.69
32452;BME280;45528;52.102;5.242;2024-03-07T08:25:42;102108.0;;;11.83;55.31
32452;BME280;45528;52.102;5.242;2024-03-07T08:27:18;102102.0;;;11.95;55.19
32452;BME280;45528;52.102;5.242;2024-03-07T08:30:30;102101.0;;;11.81;55.13
32452;BME280;45528;52.102;5.242;2024-03-07T08:32:07;102102.0;;;11.85;55.12
32452;BME280;45528;52.102;5.242;2024-03-07T08:33:44;102093.0;;;11.54;55.45
32452;BME280;45528;52.102;5.242;2024-03-07T08:35:20;102092.0;;;11.32;56.28
32452;BME280;45528;52.102;5.242;2024-03-07T08:38:36;102100.0;;;12.21;54.93
32452;BME280;45528;52.102;5.242;2024-03-07T08:40:12;102097.0;;;12.15;54.56
32452;BME280;45528;52.102;5.242;2024-03-07T08:41:48;102103.0;;;12.2;53.99
32452;BME280;45528;52.102;5.242;2024-03-07T08:45:01;102100.0;;;11.93;54.46
32452;BME280;45528;52.102;5.242;2024-03-07T08:46:39;102105.0;;;12.35;54.21
32452;BME280;45528;52.102;5.242;2024-03-07T08:48:15;102111.0;;;12.05;54.04
32452;BME280;45528;52.102;5.242;2024-03-07T08:51:27;102110.0;;;12.2;53.77
32452;BME280;45528;52.102;5.242;2024-03-07T08:53:04;102108.0;;;12.21;53.61
32452;BME280;45528;52.102;5.242;2024-03-07T08:54:41;102103.0;;;11.87;54.15
32452;BME280;45528;52.102;5.242;2024-03-07T08:56:17;102102.0;;;11.96;54.06
32452;BME280;45528;52.102;5.242;2024-03-07T08:59:30;102105.0;;;12.34;53.23
32452;BME280;45528;52.102;5.242;2024-03-07T09:01:09;102106.0;;;12.31;53.47
32452;BME280;45528;52.102;5.242;2024-03-07T09:02:45;102100.0;;;12.18;53.36
32452;BME280;45528;52.102;5.242;2024-03-07T09:05:57;102102.0;;;12.48;52.82
32452;BME280;45528;52.102;5.242;2024-03-07T09:07:33;102097.0;;;12.67;52.06
32452;BME280;45528;52.102;5.242;2024-03-07T09:09:09;102099.0;;;12.88;51.12
32452;BME280;45528;52.102;5.242;2024-03-07T09:12:22;102101.0;;;12.85;51.16
32452;BME280;45528;52.102;5.242;2024-03-07T09:13:58;102098.0;;;12.71;50.7
32452;BME280;45528;52.102;5.242;2024-03-07T09:15:34;102096.0;;;13.07;49.8
32452;BME280;45528;52.102;5.242;2024-03-07T09:17:10;102095.0;;;12.8;50.34
32452;BME280;45528;52.102;5.242;2024-03-07T09:20:22;102090.0;;;12.95;50.03
32452;BME280;45528;52.102;5.242;2024-03-07T09:21:58;102094.0;;;12.83;49.81
32452;BME280;45528;52.102;5.242;2024-03-07T09:23:34;102085.0;;;12.77;49.56
32452;BME280;45528;52.102;5.242;2024-03-07T09:26:47;102085.0;;;12.75;49.25
32452;BME280;45528;52.102;5.242;2024-03-07T09:28:24;102078.0;;;12.42;49.56
32452;BME280;45528;52.102;5.242;2024-03-07T09:30:00;102083.0;;;12.91;49.2
32452;BME280;45528;52.102;5.242;2024-03-07T09:33:12;102083.0;;;13.19;49.14
32452;BME280;45528;52.102;5.242;2024-03-07T09:34:48;102078.0;;;12.6;49.57
32452;BME280;45528;52.102;5.242;2024-03-07T09:36:24;102085.0;;;12.8;48.41
32452;BME280;45528;52.102;5.242;2024-03-07T09:38:00;102080.0;;;13.25;48.75
32452;BME280;45528;52.102;5.242;2024-03-07T09:41:14;102080.0;;;13.06;47.92
32452;BME280;45528;52.102;5.242;2024-03-07T09:42:51;102070.0;;;13.12;48.51
32452;BME280;45528;52.102;5.242;2024-03-07T09:44:28;102071.0;;;13.78;47.48
32452;BME280;45528;52.102;5.242;2024-03-07T09:47:45;102071.0;;;13.7;47.67
32452;BME280;45528;52.102;5.242;2024-03-07T09:49:24;102067.0;;;13.71;46.92
32452;BME280;45528;52.102;5.242;2024-03-07T09:51:02;102067.0;;;13.89;46.84
32452;BME280;45528;52.102;5.242;2024-03-07T09:52:41;102066.0;;;13.7;46.72
32452;BME280;45528;52.102;5.242;2024-03-07T09:55:55;102064.0;;;14.08;46.11
32452;BME280;45528;52.102;5.242;2024-03-07T09:57:33;102068.0;;;14.31;45.85
32452;BME280;45528;52.102;5.242;2024-03-07T09:59:12;102065.0;;;14.39;45.46
32452;BME280;45528;52.102;5.242;2024-03-07T10:02:26;102067.0;;;13.87;45.3
32452;BME280;45528;52.102;5.242;2024-03-07T10:04:05;102065.0;;;14.35;45.1
32452;BME280;45528;52.102;5.242;2024-03-07T10:05:44;102055.0;;;14.24;45.51
32452;BME280;45528;52.102;5.242;2024-03-07T10:07:20;102060.0;;;14.42;45.4
32452;BME280;45528;52.102;5.242;2024-03-07T10:10:33;102077.0;;;14.36;44.56
32452;BME280;45528;52.102;5.242;2024-03-07T10:12:09;102064.0;;;13.74;45.58
32452;BME280;45528;52.102;5.242;2024-03-07T10:13:45;102058.0;;;13.85;45.22
32452;BME280;45528;52.102;5.242;2024-03-07T10:17:03;102063.0;;;14.05;45.4
32452;BME280;45528;52.102;5.242;2024-03-07T10:18:41;102065.0;;;14.04;45.56
32452;BME280;45528;52.102;5.242;2024-03-07T10:20:18;102064.0;;;13.72;45.41
32452;BME280;45528;52.102;5.242;2024-03-07T10:23:31;102055.0;;;13.81;45.61
32452;BME280;45528;52.102;5.242;2024-03-07T10:25:08;102051.0;;;13.74;45.17
32452;BME280;45528;52.102;5.242;2024-03-07T10:26:44;102045.0;;;13.95;45.74
32452;BME280;45528;52.102;5.242;2024-03-07T10:28:20;102050.0;;;13.98;45.53
32452;BME280;45528;52.102;5.242;2024-03-07T10:31:36;102045.0;;;13.93;45.72
32452;BME280;45528;52.102;5.242;2024-03-07T10:33:12;102039.0;;;14.19;44.92
32452;BME280;45528;52.102;5.242;2024-03-07T10:34:50;102043.0;;;14.51;44.9
32452;BME280;45528;52.102;5.242;2024-03-07T10:38:02;102031.0;;;14.13;44.11
32452;BME280;45528;52.102;5.242;2024-03-07T10:39:38;102034.0;;;14.48;44.46
32452;BME280;45528;52.102;5.242;2024-03-07T10:41:15;102034.0;;;14.43;43.33
32452;BME280;45528;52.102;5.242;2024-03-07T10:42:58;102025.0;;;14.6;43.37
32452;BME280;45528;52.102;5.242;2024-03-07T10:46:17;102027.0;;;14.42;43.7
32452;BME280;45528;52.102;5.242;2024-03-07T10:47:57;102026.0;;;14.32;43.16
32452;BME280;45528;52.102;5.242;2024-03-07T10:49:36;102026.0;;;14.33;43.71
32452;BME280;45528;52.102;5.242;2024-03-07T10:51:24;102025.0;;;14.45;42.85
32452;BME280;45528;52.102;5.242;2024-03-07T10:55:00;102028.0;;;14.3;42.47
32452;BME280;45528;52.102;5.242;2024-03-07T10:56:50;102011.0;;;14.86;42.2
32452;BME280;45528;52.102;5.242;2024-03-07T10:58:53;102012.0;;;15.07;41.14
32452;BME280;45528;52.102;5.242;2024-03-07T11:00:35;102014.0;;;14.93;41.86
32452;BME280;45528;52.102;5.242;2024-03-07T11:02:20;102019.0;;;15.15;41.49
32452;BME280;45528;52.102;5.242;2024-03-07T11:04:00;102013.0;;;15.06;41.23
32452;BME280;45528;52.102;5.242;2024-03-07T11:07:13;102022.0;;;14.84;41.47
32452;BME280;45528;52.102;5.242;2024-03-07T11:08:50;102013.0;;;14.92;41.51
32452;BME280;45528;52.102;5.242;2024-03-07T11:10:28;102013.0;;;15.0;41.63
32452;BME280;45528;52.102;5.242;2024-03-07T11:13:43;102001.0;;;14.6;42.65
32452;BME280;45528;52.102;5.242;2024-03-07T11:15:21;102008.0;;;14.84;41.17
32452;BME280;45528;52.102;5.242;2024-03-07T11:16:59;102003.0;;;14.52;41.75
32452;BME280;45528;52.102;5.242;2024-03-07T11:18:37;101997.0;;;15.01;41.57
32452;BME280;45528;52.102;5.242;2024-03-07T11:21:55;101996.0;;;14.85;41.22
32452;BME280;45528;52.102;5.242;2024-03-07T11:23:33;101980.0;;;15.12;40.65
32452;BME280;45528;52.102;5.242;2024-03-07T11:25:09;101995.0;;;15.62;41.41
32452;BME280;45528;52.102;5.242;2024-03-07T11:28:28;102000.0;;;15.66;40.92